Ingeniero Jacobacci, Argentina
Current Conditions -  °F | °C
As of 12:00 AM on Monday 20 Oct 2014 (Local Time) from SAZS Reporting Station
Moderate Rain Moderate Rain  
Wind Chill:   Ceiling: Unl
Heat Index:   Visibility: 5mi
Dew Point:   Wind: 12mph
Humidity: 81%   Direction: 320°NW
Pressure: 29.97"   Gusts: NA
Location:  41.43°S, 69.47°W
Report Text: SAZS 200300Z 32010KT 8000 RA SCT010 SCT056 08/05 Q1015
Loading
Personal Weather Stations






























Interactive Weather Map
Tropical Storm Tracking
New forecast layout! Learn more

10-Day Weather Forecast

Advertisements
Track Severe Weather on mobile